createdAt,value
2019-03-13T00:00:14.311Z,14.90
2019-03-13T00:01:14.275Z,14.40
2019-03-13T00:02:14.268Z,14.80
2019-03-13T00:03:14.260Z,14.70
2019-03-13T00:04:14.246Z,15.40
2019-03-13T00:05:14.265Z,15.20
2019-03-13T00:06:14.222Z,15.70
2019-03-13T00:07:14.215Z,14.80
2019-03-13T00:08:14.204Z,14.90
2019-03-13T00:09:14.190Z,14.80
2019-03-13T00:10:14.211Z,13.00
2019-03-13T00:11:14.186Z,14.50
2019-03-13T00:12:14.156Z,15.20
2019-03-13T00:13:14.144Z,13.10
2019-03-13T00:14:14.137Z,12.30
2019-03-13T00:15:14.156Z,14.60
2019-03-13T00:16:14.113Z,13.40
2019-03-13T00:17:14.104Z,14.10
2019-03-13T00:18:14.094Z,12.30
2019-03-13T00:19:14.079Z,12.10
2019-03-13T00:20:14.096Z,13.70
2019-03-13T00:21:14.059Z,14.00
2019-03-13T00:22:14.055Z,14.60
2019-03-13T00:23:14.040Z,12.00
2019-03-13T00:24:14.029Z,11.00
2019-03-13T00:25:14.045Z,11.20
2019-03-13T00:26:14.017Z,12.70
2019-03-13T00:27:13.997Z,12.00
2019-03-13T00:28:13.985Z,12.20
2019-03-13T00:29:13.976Z,11.40
2019-03-13T00:30:13.994Z,10.60
2019-03-13T00:31:13.958Z,10.70
2019-03-13T00:32:13.942Z,10.50
2019-03-13T00:33:13.933Z,11.30
2019-03-13T00:34:13.920Z,9.10
2019-03-13T00:35:13.936Z,10.50
2019-03-13T00:36:13.902Z,10.00
2019-03-13T00:37:13.889Z,10.90
2019-03-13T00:38:13.881Z,9.40
2019-03-13T00:39:13.875Z,9.80
2019-03-13T00:40:13.890Z,9.50
2019-03-13T00:41:13.849Z,10.20
2019-03-13T00:42:13.837Z,10.00
2019-03-13T00:43:13.832Z,10.20
2019-03-13T00:44:13.817Z,9.80
2019-03-13T00:45:13.836Z,9.30
2019-03-13T00:46:13.800Z,10.20
2019-03-13T00:47:13.784Z,10.00
2019-03-13T00:48:13.773Z,9.20
2019-03-13T00:49:13.777Z,9.20
2019-03-13T00:50:13.779Z,10.10
2019-03-13T00:51:13.740Z,9.90
2019-03-13T00:52:13.730Z,9.80
2019-03-13T00:53:13.822Z,9.60
2019-03-13T00:54:13.711Z,8.80
2019-03-13T00:55:13.724Z,10.40
2019-03-13T00:56:13.688Z,10.70
2019-03-13T00:57:13.677Z,10.30
2019-03-13T00:58:13.667Z,10.50
2019-03-13T00:59:13.656Z,11.70
2019-03-13T01:00:13.679Z,11.20
2019-03-13T01:01:13.639Z,11.80
2019-03-13T01:02:13.624Z,11.30
2019-03-13T01:03:13.611Z,12.10
2019-03-13T01:04:13.610Z,11.10
2019-03-13T01:05:13.616Z,11.10
2019-03-13T01:06:13.589Z,12.00
2019-03-13T01:07:13.572Z,11.60
2019-03-13T01:08:13.559Z,12.60
2019-03-13T01:09:13.555Z,12.20
2019-03-13T01:10:13.573Z,13.10
2019-03-13T01:11:13.531Z,12.00
2019-03-13T01:12:13.521Z,11.40
2019-03-13T01:13:13.509Z,10.80
2019-03-13T01:14:13.496Z,10.10
2019-03-13T01:15:13.616Z,11.00
2019-03-13T01:16:13.476Z,11.30
2019-03-13T01:17:13.465Z,11.20
2019-03-13T01:18:13.461Z,11.40
2019-03-13T01:19:13.446Z,12.00
2019-03-13T01:20:13.452Z,11.90
2019-03-13T01:21:13.447Z,12.40
2019-03-13T01:22:13.412Z,12.70
2019-03-13T01:23:13.404Z,12.70
2019-03-13T01:24:13.400Z,13.40
2019-03-13T01:25:13.380Z,12.40
2019-03-13T01:26:13.400Z,12.90
2019-03-13T01:27:13.360Z,12.10
2019-03-13T01:28:13.347Z,13.40
2019-03-13T01:29:13.336Z,12.70
2019-03-13T01:30:13.328Z,12.10
2019-03-13T01:31:13.351Z,12.10
2019-03-13T01:32:13.311Z,13.20
2019-03-13T01:33:13.292Z,13.40
2019-03-13T01:34:13.283Z,10.90
2019-03-13T01:35:13.278Z,13.00
2019-03-13T01:36:13.290Z,11.60
2019-03-13T01:37:13.250Z,10.80
2019-03-13T01:38:13.243Z,11.30
2019-03-13T01:39:13.227Z,11.50
2019-03-13T01:40:13.220Z,11.70
2019-03-13T01:41:13.235Z,10.70
2019-03-13T01:42:13.201Z,10.50
2019-03-13T01:43:13.192Z,11.80
2019-03-13T01:44:13.174Z,12.40
2019-03-13T01:45:13.167Z,10.10
2019-03-13T01:46:13.178Z,12.80
2019-03-13T01:47:13.156Z,11.80
2019-03-13T01:48:13.137Z,11.80
2019-03-13T01:49:13.126Z,11.00
2019-03-13T01:50:13.111Z,11.50
2019-03-13T01:51:13.131Z,12.30
2019-03-13T01:52:13.093Z,12.90
2019-03-13T01:53:13.107Z,12.40
2019-03-13T01:54:13.074Z,12.10
2019-03-13T01:55:13.061Z,12.50
2019-03-13T01:56:13.076Z,12.70
2019-03-13T01:57:13.042Z,12.30
2019-03-13T01:58:13.029Z,11.30
2019-03-13T01:59:13.015Z,12.60
2019-03-13T02:00:13.008Z,13.40
2019-03-13T02:01:13.021Z,11.80
2019-03-13T02:02:12.993Z,12.50
2019-03-13T02:03:12.974Z,11.90
2019-03-13T02:04:12.970Z,10.80
2019-03-13T02:05:12.953Z,11.80
2019-03-13T02:06:12.981Z,12.20
2019-03-13T02:07:12.937Z,12.50
2019-03-13T02:08:12.920Z,12.60
2019-03-13T02:09:12.911Z,12.30
2019-03-13T02:10:12.906Z,13.90
2019-03-13T02:11:12.920Z,12.60
2019-03-13T02:12:12.878Z,15.00
2019-03-13T02:13:12.872Z,13.90
2019-03-13T02:14:12.855Z,14.70
2019-03-13T02:15:12.847Z,14.10
2019-03-13T02:16:12.859Z,14.10
2019-03-13T02:17:12.828Z,15.10
2019-03-13T02:18:12.817Z,13.80
2019-03-13T02:19:12.812Z,15.00
2019-03-13T02:20:12.792Z,14.40
2019-03-13T02:21:12.811Z,15.70
2019-03-13T02:22:12.789Z,14.60
2019-03-13T02:23:12.766Z,14.70
2019-03-13T02:24:12.753Z,16.00
2019-03-13T02:25:12.739Z,15.60
2019-03-13T02:26:12.763Z,15.50
2019-03-13T02:27:12.723Z,14.90
2019-03-13T02:28:12.706Z,13.40
2019-03-13T02:29:12.700Z,13.90
2019-03-13T02:30:12.691Z,15.00
2019-03-13T02:31:12.708Z,14.40
2019-03-13T02:32:12.671Z,15.60
2019-03-13T02:33:12.678Z,15.40
2019-03-13T02:34:12.669Z,14.30
2019-03-13T02:35:12.679Z,15.10
2019-03-13T02:36:12.653Z,14.10
2019-03-13T02:37:12.612Z,13.30
2019-03-13T02:38:12.609Z,14.20
2019-03-13T02:39:12.600Z,14.20
2019-03-13T02:40:12.579Z,14.60
2019-03-13T02:41:12.599Z,13.40
2019-03-13T02:42:12.576Z,13.80
2019-03-13T02:43:12.556Z,12.80
2019-03-13T02:44:12.544Z,13.00
2019-03-13T02:45:12.530Z,13.30
2019-03-13T02:46:12.552Z,14.10
2019-03-13T02:47:12.521Z,11.60
2019-03-13T02:48:12.515Z,12.30
2019-03-13T02:49:12.498Z,12.20
2019-03-13T02:50:12.638Z,10.90
2019-03-13T02:51:12.488Z,10.40
2019-03-13T02:52:12.463Z,11.30
2019-03-13T02:53:12.448Z,11.10
2019-03-13T02:54:12.440Z,9.60
2019-03-13T02:55:12.425Z,9.80
2019-03-13T02:56:12.443Z,8.70
2019-03-13T02:57:12.419Z,9.00
2019-03-13T02:58:12.399Z,8.20
2019-03-13T02:59:12.386Z,8.40
2019-03-13T03:00:12.409Z,8.70
2019-03-13T03:01:12.364Z,9.40
2019-03-13T03:02:12.377Z,7.20
2019-03-13T03:03:12.341Z,7.70
2019-03-13T03:04:12.332Z,7.00
2019-03-13T03:05:12.325Z,6.00
2019-03-13T03:06:12.317Z,6.40
2019-03-13T03:07:12.961Z,6.50
2019-03-13T03:08:12.298Z,6.40
2019-03-13T03:09:12.285Z,6.10
2019-03-13T03:10:12.270Z,5.60
2019-03-13T03:11:12.260Z,6.30
2019-03-13T03:12:12.276Z,5.60
2019-03-13T03:13:12.242Z,5.60
2019-03-13T03:14:12.231Z,5.40
2019-03-13T03:15:12.233Z,4.90
2019-03-13T03:16:12.208Z,4.90
2019-03-13T03:17:12.228Z,4.60
2019-03-13T03:18:12.201Z,4.80
2019-03-13T03:19:12.186Z,4.20
2019-03-13T03:20:12.170Z,4.20
2019-03-13T03:21:12.158Z,4.40
2019-03-13T03:22:12.168Z,4.60
2019-03-13T03:23:12.244Z,4.60
2019-03-13T03:24:12.123Z,4.60
2019-03-13T03:25:12.121Z,4.30
2019-03-13T03:26:12.112Z,4.40
2019-03-13T03:27:12.135Z,4.30
2019-03-13T03:28:12.074Z,4.50
2019-03-13T03:29:12.065Z,4.30
2019-03-13T03:30:12.061Z,4.30
2019-03-13T03:31:12.065Z,3.80
2019-03-13T03:32:12.080Z,3.70
2019-03-13T03:33:12.054Z,3.90
2019-03-13T03:34:12.029Z,4.20
2019-03-13T03:35:12.009Z,3.80
2019-03-13T03:36:12.004Z,3.60
2019-03-13T03:37:12.013Z,3.60
2019-03-13T03:38:11.975Z,4.10
2019-03-13T03:39:11.964Z,3.90
2019-03-13T03:40:11.952Z,3.90
2019-03-13T03:41:11.952Z,3.60
2019-03-13T03:42:11.956Z,3.40
2019-03-13T03:43:11.918Z,3.30
2019-03-13T03:44:11.915Z,3.50
2019-03-13T03:45:11.888Z,3.60
2019-03-13T03:46:11.878Z,3.90
2019-03-13T03:47:11.893Z,3.90
2019-03-13T03:48:11.866Z,3.90
2019-03-13T03:49:11.850Z,4.30
2019-03-13T03:50:11.841Z,3.90
2019-03-13T03:51:11.830Z,4.50
2019-03-13T03:52:11.853Z,3.90
2019-03-13T03:53:11.819Z,3.90
2019-03-13T03:54:11.807Z,4.10
2019-03-13T03:55:11.849Z,4.10
2019-03-13T03:56:11.783Z,3.60
2019-03-13T03:57:11.789Z,3.70
2019-03-13T03:58:11.749Z,4.10
2019-03-13T03:59:11.749Z,4.00
2019-03-13T04:00:11.728Z,3.50
2019-03-13T04:01:11.727Z,4.00
2019-03-13T04:02:11.741Z,3.90
2019-03-13T04:03:11.698Z,3.70
2019-03-13T04:04:11.689Z,4.10
2019-03-13T04:05:11.679Z,4.00
2019-03-13T04:06:11.694Z,3.70
2019-03-13T04:07:11.699Z,3.90
2019-03-13T04:08:11.644Z,4.00
2019-03-13T04:09:11.638Z,4.20
2019-03-13T04:10:11.723Z,4.00
2019-03-13T04:11:11.612Z,4.00
2019-03-13T04:12:11.630Z,4.10
2019-03-13T04:13:11.592Z,3.90
2019-03-13T04:14:11.587Z,4.20
2019-03-13T04:15:11.589Z,4.10
2019-03-13T04:16:11.565Z,4.40
2019-03-13T04:17:11.595Z,4.30
2019-03-13T04:18:11.539Z,4.20
2019-03-13T04:19:11.534Z,3.90
2019-03-13T04:20:11.516Z,4.20
2019-03-13T04:21:11.511Z,4.50
2019-03-13T04:22:11.521Z,4.30
2019-03-13T04:23:11.510Z,3.80
2019-03-13T04:24:11.469Z,4.30
2019-03-13T04:25:11.477Z,3.70
2019-03-13T04:26:12.906Z,4.00
2019-03-13T04:27:11.484Z,3.90
2019-03-13T04:28:11.434Z,3.80
2019-03-13T04:29:11.423Z,4.00
2019-03-13T04:30:11.425Z,4.20
2019-03-13T04:31:11.399Z,4.20
2019-03-13T04:32:11.420Z,4.10
2019-03-13T04:33:11.372Z,4.00
2019-03-13T04:34:11.371Z,3.60
2019-03-13T04:35:11.358Z,3.80
2019-03-13T04:36:11.347Z,3.70
2019-03-13T04:37:11.365Z,3.60
2019-03-13T04:38:11.329Z,4.10
2019-03-13T04:39:11.319Z,4.00
2019-03-13T04:40:11.320Z,3.80
2019-03-13T04:41:11.293Z,3.60
2019-03-13T04:42:11.327Z,4.20
2019-03-13T04:43:11.266Z,3.60
2019-03-13T04:44:11.262Z,3.40
2019-03-13T04:45:11.256Z,3.80
2019-03-13T04:46:11.251Z,3.80
2019-03-13T04:47:11.235Z,3.80
2019-03-13T04:48:11.242Z,3.80
2019-03-13T04:49:11.215Z,4.00
2019-03-13T04:50:11.206Z,4.20
2019-03-13T04:51:11.190Z,4.00
2019-03-13T04:52:11.172Z,3.40
2019-03-13T04:53:11.199Z,3.80
2019-03-13T04:54:11.150Z,4.30
2019-03-13T04:55:11.135Z,3.50
2019-03-13T04:56:11.134Z,4.10
2019-03-13T04:57:11.122Z,4.00
2019-03-13T04:58:11.142Z,3.00
2019-03-13T04:59:11.097Z,3.60
2019-03-13T05:00:11.080Z,3.60
2019-03-13T05:01:11.076Z,3.60
2019-03-13T05:02:11.068Z,3.90
2019-03-13T05:03:11.084Z,4.20
2019-03-13T05:04:11.046Z,4.00
2019-03-13T05:05:11.036Z,4.10
2019-03-13T05:06:11.021Z,4.00
2019-03-13T05:07:11.013Z,3.20
2019-03-13T05:08:11.026Z,3.80
2019-03-13T05:09:11.000Z,4.30
2019-03-13T05:10:10.974Z,4.10
2019-03-13T05:11:10.965Z,4.20
2019-03-13T05:12:10.939Z,4.00
2019-03-13T05:13:11.161Z,4.20
2019-03-13T05:14:10.940Z,3.60
2019-03-13T05:15:10.921Z,4.00
2019-03-13T05:16:10.916Z,4.60
2019-03-13T05:17:10.904Z,3.70
2019-03-13T05:18:10.919Z,3.70
2019-03-13T05:19:10.887Z,3.70
2019-03-13T05:20:13.708Z,3.70
2019-03-13T05:21:10.857Z,3.50
2019-03-13T05:22:10.850Z,3.60
2019-03-13T05:23:10.862Z,3.70
2019-03-13T05:24:10.826Z,4.50
2019-03-13T05:25:10.823Z,4.00
2019-03-13T05:26:10.810Z,3.80
2019-03-13T05:27:10.800Z,3.80
2019-03-13T05:28:10.808Z,4.30
2019-03-13T05:29:10.772Z,3.70
2019-03-13T05:30:10.763Z,3.90
2019-03-13T05:31:10.760Z,3.80
2019-03-13T05:32:10.745Z,3.40
2019-03-13T05:33:10.760Z,3.80
2019-03-13T05:34:10.722Z,3.50
2019-03-13T05:35:10.707Z,3.90
2019-03-13T05:36:10.696Z,3.70
2019-03-13T05:37:10.696Z,3.80
2019-03-13T05:38:10.710Z,3.30
2019-03-13T05:39:10.665Z,4.30
2019-03-13T05:40:10.664Z,4.20
2019-03-13T05:41:10.642Z,4.30
2019-03-13T05:42:10.647Z,3.70
2019-03-13T05:43:10.650Z,3.30
2019-03-13T05:44:10.613Z,4.40
2019-03-13T05:45:10.599Z,4.10
2019-03-13T05:46:10.593Z,3.80
2019-03-13T05:47:10.581Z,4.20
2019-03-13T05:48:10.600Z,4.00
2019-03-13T05:49:10.558Z,3.70
2019-03-13T05:50:10.546Z,3.70
2019-03-13T05:51:10.547Z,3.70
2019-03-13T05:52:10.531Z,3.40
2019-03-13T05:53:10.547Z,3.40
2019-03-13T05:54:10.512Z,4.10
2019-03-13T05:55:10.487Z,3.90
2019-03-13T05:56:10.487Z,3.40
2019-03-13T05:57:10.471Z,3.90
2019-03-13T05:58:10.489Z,3.70
2019-03-13T05:59:10.464Z,4.00
2019-03-13T06:00:10.448Z,3.70
2019-03-13T06:01:10.429Z,4.00
2019-03-13T06:02:21.336Z,4.10
2019-03-13T06:03:10.422Z,3.60
2019-03-13T06:04:10.384Z,4.30
2019-03-13T06:05:10.389Z,3.50
2019-03-13T06:06:10.361Z,4.10
2019-03-13T06:07:10.347Z,4.00
2019-03-13T06:08:10.371Z,4.10
2019-03-13T06:09:10.325Z,3.60
2019-03-13T06:10:10.320Z,5.10
2019-03-13T06:11:10.324Z,3.80
2019-03-13T06:12:10.322Z,4.90
2019-03-13T06:13:10.343Z,3.90
2019-03-13T06:14:10.295Z,3.90
2019-03-13T06:15:10.300Z,4.00
2019-03-13T06:16:10.346Z,4.30
2019-03-13T06:17:10.268Z,4.20
2019-03-13T06:18:10.325Z,3.90
2019-03-13T06:19:20.829Z,3.90
2019-03-13T06:20:20.894Z,4.30
2019-03-13T06:21:10.204Z,4.40
2019-03-13T06:22:10.193Z,4.20
2019-03-13T06:23:10.202Z,4.00
2019-03-13T06:24:10.222Z,3.60
2019-03-13T06:25:10.165Z,4.10
2019-03-13T06:26:10.165Z,4.30
2019-03-13T06:27:10.256Z,4.60
2019-03-13T06:28:10.175Z,4.10
2019-03-13T06:29:10.115Z,4.40
2019-03-13T06:30:10.096Z,4.50
2019-03-13T06:31:10.108Z,3.70
2019-03-13T06:32:10.087Z,4.20
2019-03-13T06:33:10.075Z,3.90
2019-03-13T06:34:11.424Z,3.70
2019-03-13T06:35:10.054Z,3.80
2019-03-13T06:36:10.050Z,3.80
2019-03-13T06:37:10.047Z,4.00
2019-03-13T06:38:10.028Z,3.60
2019-03-13T06:39:10.044Z,3.90
2019-03-13T06:40:10.017Z,4.20
2019-03-13T06:41:09.998Z,3.90
2019-03-13T06:42:09.987Z,3.80
2019-03-13T06:43:09.976Z,4.10
2019-03-13T06:44:09.995Z,4.20
2019-03-13T06:45:09.955Z,4.30
2019-03-13T06:46:09.950Z,3.50
2019-03-13T06:47:09.931Z,3.70
2019-03-13T06:48:09.925Z,4.00
2019-03-13T06:49:09.946Z,4.00
2019-03-13T06:50:09.903Z,4.30
2019-03-13T06:51:09.894Z,4.40
2019-03-13T06:52:09.865Z,3.90
2019-03-13T06:53:09.870Z,4.10
2019-03-13T06:54:09.884Z,3.70
2019-03-13T06:55:09.843Z,3.70
2019-03-13T06:56:09.832Z,3.60
2019-03-13T06:57:09.830Z,3.10
2019-03-13T06:58:09.818Z,4.20
2019-03-13T06:59:09.835Z,3.30
2019-03-13T07:00:09.795Z,4.20
2019-03-13T07:01:09.791Z,3.70
2019-03-13T07:02:09.770Z,4.00
2019-03-13T07:03:09.774Z,4.30
2019-03-13T07:04:09.783Z,3.60
2019-03-13T07:05:09.744Z,4.20
2019-03-13T07:06:09.726Z,3.50
2019-03-13T07:07:09.718Z,3.90
2019-03-13T07:08:09.707Z,3.20
2019-03-13T07:09:09.723Z,3.90
2019-03-13T07:10:09.695Z,3.80
2019-03-13T07:11:09.676Z,3.50
2019-03-13T07:12:09.663Z,4.40
2019-03-13T07:13:09.725Z,3.70
2019-03-13T07:14:18.921Z,3.70
2019-03-13T07:15:09.630Z,3.20
2019-03-13T07:16:09.603Z,3.40
2019-03-13T07:17:09.601Z,3.70
2019-03-13T07:18:09.586Z,4.00
2019-03-13T07:19:09.606Z,3.60
2019-03-13T07:20:09.574Z,3.70
2019-03-13T07:21:09.553Z,3.90
2019-03-13T07:22:09.624Z,4.00
2019-03-13T07:23:09.532Z,3.80
2019-03-13T07:24:09.555Z,3.70
2019-03-13T07:25:09.518Z,4.20
2019-03-13T07:26:09.515Z,4.10
2019-03-13T07:27:09.500Z,4.20
2019-03-13T07:28:09.493Z,3.50
2019-03-13T07:29:12.436Z,3.50
2019-03-13T07:30:09.479Z,2.90
2019-03-13T07:31:09.465Z,3.90
2019-03-13T07:32:09.455Z,4.10
2019-03-13T07:33:09.435Z,3.90
2019-03-13T07:34:09.445Z,3.70
2019-03-13T07:35:09.407Z,4.10
2019-03-13T07:36:09.401Z,4.30
2019-03-13T07:37:09.394Z,3.70
2019-03-13T07:38:09.374Z,3.70
2019-03-13T07:39:09.401Z,4.20
2019-03-13T07:40:09.362Z,4.40
2019-03-13T07:41:09.349Z,3.60
2019-03-13T07:42:09.348Z,3.70
2019-03-13T07:43:09.345Z,3.70
2019-03-13T07:44:09.356Z,3.60
2019-03-13T07:45:09.303Z,3.80
2019-03-13T07:46:09.297Z,4.10
2019-03-13T07:47:09.282Z,3.20
2019-03-13T07:48:09.278Z,3.40
2019-03-13T07:49:09.294Z,4.00
2019-03-13T07:50:09.255Z,4.10
2019-03-13T07:51:09.241Z,3.30
2019-03-13T07:52:09.231Z,4.40
2019-03-13T07:53:09.222Z,3.50
2019-03-13T07:54:09.237Z,4.40
2019-03-13T07:55:09.200Z,4.30
2019-03-13T07:56:09.189Z,3.80
2019-03-13T07:57:09.187Z,3.50
2019-03-13T07:58:09.164Z,4.10
2019-03-13T07:59:09.207Z,3.70
2019-03-13T08:00:09.155Z,4.30
2019-03-13T08:01:09.136Z,3.70
2019-03-13T08:02:09.131Z,3.70
2019-03-13T08:03:09.115Z,3.90
2019-03-13T08:04:09.105Z,3.90
2019-03-13T08:05:09.127Z,3.70
2019-03-13T08:06:09.081Z,4.00
2019-03-13T08:07:09.069Z,4.20
2019-03-13T08:08:09.060Z,4.20
2019-03-13T08:09:09.037Z,4.50
2019-03-13T08:10:09.054Z,4.10
2019-03-13T08:11:09.027Z,4.10
2019-03-13T08:12:09.011Z,4.40
2019-03-13T08:13:08.993Z,4.50
2019-03-13T08:14:08.979Z,4.80
2019-03-13T08:15:08.996Z,4.60
2019-03-13T08:16:08.964Z,5.20
2019-03-13T08:17:09.024Z,4.60
2019-03-13T08:18:08.940Z,4.40
2019-03-13T08:19:08.929Z,4.50
2019-03-13T08:20:08.947Z,4.60
2019-03-13T08:21:08.912Z,4.20
2019-03-13T08:22:08.892Z,5.40
2019-03-13T08:23:08.886Z,5.00
2019-03-13T08:24:08.871Z,4.00
2019-03-13T08:25:08.887Z,4.50
2019-03-13T08:26:08.852Z,4.90
2019-03-13T08:27:08.845Z,5.20
2019-03-13T08:28:08.831Z,5.40
2019-03-13T08:29:08.828Z,5.10
2019-03-13T08:30:08.839Z,5.10
2019-03-13T08:31:08.796Z,5.20
2019-03-13T08:32:08.785Z,5.10
2019-03-13T08:33:08.777Z,4.80
2019-03-13T08:34:08.768Z,5.30
2019-03-13T08:35:08.784Z,5.30
2019-03-13T08:36:08.743Z,5.00
2019-03-13T08:37:08.739Z,4.20
2019-03-13T08:38:08.722Z,4.60
2019-03-13T08:39:08.716Z,4.70
2019-03-13T08:40:08.726Z,4.80
2019-03-13T08:41:08.687Z,4.60
2019-03-13T08:42:08.677Z,4.60
2019-03-13T08:43:08.671Z,4.60
2019-03-13T08:44:08.655Z,5.20
2019-03-13T08:45:08.668Z,5.30
2019-03-13T08:46:08.636Z,4.20
2019-03-13T08:47:08.627Z,4.60
2019-03-13T08:48:08.619Z,5.10
2019-03-13T08:49:08.604Z,4.70
2019-03-13T08:50:08.620Z,4.30
2019-03-13T08:51:08.584Z,5.00
2019-03-13T08:52:08.580Z,4.90
2019-03-13T08:53:08.560Z,4.80
2019-03-13T08:54:08.548Z,4.50
2019-03-13T08:55:08.565Z,4.00
2019-03-13T08:56:08.531Z,4.50
2019-03-13T08:57:08.521Z,4.50
2019-03-13T08:58:08.578Z,4.90
2019-03-13T08:59:08.496Z,4.00
2019-03-13T09:00:08.511Z,5.20
2019-03-13T09:01:08.475Z,4.70
2019-03-13T09:02:08.464Z,4.60
2019-03-13T09:03:08.459Z,4.60
2019-03-13T09:04:08.445Z,4.50
2019-03-13T09:05:08.499Z,4.10
2019-03-13T09:06:08.443Z,5.00
2019-03-13T09:07:08.440Z,4.70
2019-03-13T09:08:08.400Z,4.70
2019-03-13T09:09:08.396Z,4.50
2019-03-13T09:10:08.426Z,4.50
2019-03-13T09:11:08.369Z,5.10
2019-03-13T09:12:08.362Z,4.80
2019-03-13T09:13:08.353Z,4.30
2019-03-13T09:14:08.339Z,4.70
2019-03-13T09:15:08.361Z,4.80
2019-03-13T09:16:08.323Z,4.30
2019-03-13T09:17:08.311Z,5.00
2019-03-13T09:18:08.293Z,4.40
2019-03-13T09:19:08.289Z,5.30
2019-03-13T09:20:08.339Z,5.20
2019-03-13T09:21:08.273Z,5.00
2019-03-13T09:22:08.252Z,5.00
2019-03-13T09:23:08.241Z,4.90
2019-03-13T09:24:08.243Z,4.60
2019-03-13T09:25:17.427Z,4.60
2019-03-13T09:26:08.225Z,4.50
2019-03-13T09:27:08.200Z,4.90
2019-03-13T09:28:08.202Z,4.30
2019-03-13T09:29:08.191Z,4.80
2019-03-13T09:30:08.200Z,4.50
2019-03-13T09:31:08.155Z,4.50
2019-03-13T09:32:08.158Z,4.60
2019-03-13T09:33:08.135Z,4.80
2019-03-13T09:34:08.129Z,4.50
2019-03-13T09:35:08.145Z,4.30
2019-03-13T09:36:08.105Z,4.30
2019-03-13T09:37:08.095Z,5.10
2019-03-13T09:38:08.091Z,4.70
2019-03-13T09:39:08.080Z,4.80
2019-03-13T09:40:08.104Z,4.50
2019-03-13T09:41:08.048Z,4.00
2019-03-13T09:42:08.036Z,4.60
2019-03-13T09:43:08.034Z,4.60
2019-03-13T09:44:08.032Z,4.50
2019-03-13T09:45:08.011Z,4.40
2019-03-13T09:46:08.026Z,4.20
2019-03-13T09:47:08.010Z,4.90
2019-03-13T09:48:07.973Z,5.00
2019-03-13T09:49:08.101Z,5.00
2019-03-13T09:50:07.958Z,4.70
2019-03-13T09:51:07.975Z,4.90
2019-03-13T09:52:07.932Z,4.80
2019-03-13T09:53:07.924Z,4.70
2019-03-13T09:54:07.916Z,4.50
2019-03-13T09:55:07.910Z,4.60
2019-03-13T09:56:07.927Z,4.30
2019-03-13T09:57:07.875Z,4.90
2019-03-13T09:58:07.880Z,4.40
2019-03-13T09:59:07.867Z,4.30
2019-03-13T10:00:07.844Z,4.80
2019-03-13T10:01:07.858Z,4.60
2019-03-13T10:02:07.820Z,4.50
2019-03-13T10:03:07.808Z,4.10
2019-03-13T10:04:07.799Z,5.30
2019-03-13T10:05:07.788Z,5.00
2019-03-13T10:06:07.799Z,4.60
2019-03-13T10:07:07.766Z,4.40
2019-03-13T10:08:07.754Z,4.30
2019-03-13T10:09:07.747Z,4.10
2019-03-13T10:10:07.731Z,5.10
2019-03-13T10:11:07.749Z,4.60
2019-03-13T10:12:07.715Z,4.60
2019-03-13T10:13:07.701Z,4.60
2019-03-13T10:14:07.692Z,4.50
2019-03-13T10:15:07.681Z,4.90
2019-03-13T10:16:07.692Z,4.30
2019-03-13T10:17:11.117Z,4.80
2019-03-13T10:18:07.650Z,4.50
2019-03-13T10:19:07.654Z,4.30
2019-03-13T10:20:07.631Z,4.30
2019-03-13T10:21:07.639Z,4.20
2019-03-13T10:22:07.603Z,3.90
2019-03-13T10:23:07.602Z,3.70
2019-03-13T10:24:07.592Z,4.30
2019-03-13T10:25:07.573Z,4.00
2019-03-13T10:26:07.591Z,4.50
2019-03-13T10:27:07.551Z,4.20
2019-03-13T10:28:07.540Z,4.20
2019-03-13T10:29:07.540Z,4.00
2019-03-13T10:30:07.523Z,4.00
2019-03-13T10:31:07.546Z,4.80
2019-03-13T10:32:07.499Z,4.00
2019-03-13T10:33:07.489Z,4.80
2019-03-13T10:34:07.475Z,4.40
2019-03-13T10:35:07.474Z,4.70
2019-03-13T10:36:07.486Z,4.00
2019-03-13T10:37:07.454Z,4.40
2019-03-13T10:38:13.725Z,4.40
2019-03-13T10:39:08.432Z,4.10
2019-03-13T10:40:07.411Z,3.80
2019-03-13T10:41:07.439Z,4.70
2019-03-13T10:42:07.393Z,4.60
2019-03-13T10:43:07.385Z,4.90
2019-03-13T10:44:07.373Z,5.10
2019-03-13T10:45:07.364Z,4.50
2019-03-13T10:46:07.379Z,4.20
2019-03-13T10:47:07.350Z,4.20
2019-03-13T10:48:07.332Z,4.00
2019-03-13T10:49:07.320Z,4.80
2019-03-13T10:50:07.312Z,4.30
2019-03-13T10:51:07.325Z,4.60
2019-03-13T10:52:07.292Z,4.20
2019-03-13T10:53:07.280Z,4.20
2019-03-13T10:54:07.268Z,4.10
2019-03-13T10:55:07.257Z,4.20
2019-03-13T10:56:07.274Z,4.40
2019-03-13T10:57:07.232Z,4.20
2019-03-13T10:58:07.229Z,4.40
2019-03-13T10:59:07.211Z,4.30
2019-03-13T11:00:07.208Z,4.20
2019-03-13T11:01:07.215Z,4.30
2019-03-13T11:02:07.181Z,4.30
2019-03-13T11:03:07.167Z,4.40
2019-03-13T11:04:07.168Z,4.60
2019-03-13T11:05:07.147Z,4.20
2019-03-13T11:06:07.172Z,4.00
2019-03-13T11:07:07.124Z,4.60
2019-03-13T11:08:07.122Z,5.20
2019-03-13T11:09:15.937Z,4.10
2019-03-13T11:10:07.109Z,5.10
2019-03-13T11:11:07.109Z,3.90
2019-03-13T11:12:07.068Z,4.40
2019-03-13T11:13:07.069Z,4.40
2019-03-13T11:14:15.511Z,4.00
2019-03-13T11:15:08.036Z,3.80
2019-03-13T11:16:07.058Z,3.90
2019-03-13T11:17:07.023Z,4.40
2019-03-13T11:18:07.004Z,4.00
2019-03-13T11:19:07.002Z,3.50
2019-03-13T11:20:06.984Z,4.30
2019-03-13T11:21:07.099Z,4.10
2019-03-13T11:22:06.983Z,4.30
2019-03-13T11:23:06.968Z,3.90
2019-03-13T11:24:06.943Z,3.80
2019-03-13T11:25:06.931Z,4.00
2019-03-13T11:26:06.916Z,3.60
2019-03-13T11:27:06.933Z,4.80
2019-03-13T11:28:06.902Z,4.20
2019-03-13T11:29:06.892Z,3.70
2019-03-13T11:30:06.874Z,4.00
2019-03-13T11:31:06.873Z,4.10
2019-03-13T11:32:06.886Z,3.90
2019-03-13T11:33:06.849Z,4.60
2019-03-13T11:34:06.833Z,4.70
2019-03-13T11:35:06.829Z,4.40
2019-03-13T11:36:06.812Z,3.80
2019-03-13T11:37:06.824Z,4.20
2019-03-13T11:38:06.790Z,3.70
2019-03-13T11:39:06.780Z,3.80
2019-03-13T11:40:06.770Z,3.90
2019-03-13T11:41:06.757Z,3.70
2019-03-13T11:42:06.771Z,4.10
2019-03-13T11:43:06.737Z,3.60
2019-03-13T11:44:06.720Z,3.80
2019-03-13T11:45:06.719Z,4.10
2019-03-13T11:46:06.701Z,3.80
2019-03-13T11:47:06.717Z,3.90
2019-03-13T11:48:06.680Z,3.90
2019-03-13T11:49:06.670Z,3.50
2019-03-13T11:50:06.660Z,4.20
2019-03-13T11:51:06.652Z,3.40
2019-03-13T11:52:06.660Z,3.50
2019-03-13T11:53:06.625Z,4.30
2019-03-13T11:54:06.611Z,3.30
2019-03-13T11:55:06.605Z,4.00
2019-03-13T11:56:06.595Z,3.90
2019-03-13T11:57:06.615Z,3.70
2019-03-13T11:58:06.575Z,3.80
2019-03-13T11:59:06.559Z,3.40
2019-03-13T12:00:06.547Z,3.60
2019-03-13T12:01:06.541Z,3.60
2019-03-13T12:02:06.558Z,4.00
2019-03-13T12:03:06.517Z,3.90
2019-03-13T12:04:06.508Z,3.90
2019-03-13T12:05:06.495Z,3.80
2019-03-13T12:06:06.485Z,4.50
2019-03-13T12:07:06.502Z,4.20
2019-03-13T12:08:06.459Z,3.80
2019-03-13T12:09:06.452Z,4.10
2019-03-13T12:10:06.438Z,3.90
2019-03-13T12:11:06.429Z,3.90
2019-03-13T12:12:06.440Z,3.80
2019-03-13T12:13:06.414Z,3.90
2019-03-13T12:14:06.414Z,4.30
2019-03-13T12:15:06.385Z,3.80
2019-03-13T12:16:06.375Z,4.10
2019-03-13T12:17:06.389Z,4.10
2019-03-13T12:18:06.355Z,4.30
2019-03-13T12:19:06.344Z,3.50
2019-03-13T12:20:06.332Z,4.00
2019-03-13T12:21:06.316Z,4.00
2019-03-13T12:22:06.335Z,4.10
2019-03-13T12:23:06.304Z,4.10
2019-03-13T12:24:06.294Z,4.00
2019-03-13T12:25:06.277Z,4.10
2019-03-13T12:26:06.267Z,4.50
2019-03-13T12:27:06.300Z,4.70
2019-03-13T12:28:06.246Z,4.10
2019-03-13T12:29:06.239Z,4.00
2019-03-13T12:30:06.225Z,4.60
2019-03-13T12:31:06.217Z,4.10
2019-03-13T12:32:06.234Z,5.00
2019-03-13T12:33:06.189Z,4.70
2019-03-13T12:34:06.177Z,4.70
2019-03-13T12:35:06.177Z,4.80
2019-03-13T12:36:06.151Z,4.80
2019-03-13T12:37:06.176Z,4.40
2019-03-13T12:38:06.131Z,4.60
2019-03-13T12:39:06.125Z,4.90
2019-03-13T12:40:06.118Z,4.90
2019-03-13T12:41:06.100Z,5.00
2019-03-13T12:42:06.115Z,4.80
2019-03-13T12:43:06.089Z,4.80
2019-03-13T12:44:06.106Z,4.60
2019-03-13T12:45:06.057Z,4.10
2019-03-13T12:46:06.055Z,5.50
2019-03-13T12:47:06.059Z,5.30
2019-03-13T12:48:16.178Z,4.60
2019-03-13T12:49:07.022Z,4.80
2019-03-13T12:50:06.004Z,5.80
2019-03-13T12:51:06.014Z,4.90
2019-03-13T12:52:06.009Z,5.40
2019-03-13T12:53:05.968Z,5.00
2019-03-13T12:54:05.961Z,5.10
2019-03-13T12:55:05.973Z,5.70
2019-03-13T12:56:05.949Z,4.90
2019-03-13T12:57:05.951Z,6.00
2019-03-13T12:58:05.918Z,5.40
2019-03-13T12:59:05.910Z,5.60
2019-03-13T13:00:05.896Z,6.30
2019-03-13T13:01:05.883Z,5.80
2019-03-13T13:02:05.913Z,6.70
2019-03-13T13:03:05.861Z,6.80
2019-03-13T13:04:05.863Z,7.50
2019-03-13T13:05:05.862Z,6.80
2019-03-13T13:06:05.829Z,7.20
2019-03-13T13:07:05.826Z,7.40
2019-03-13T13:08:05.838Z,7.40
2019-03-13T13:09:05.806Z,7.40
2019-03-13T13:10:05.787Z,7.50
2019-03-13T13:11:05.780Z,8.20
2019-03-13T13:12:05.763Z,7.40
2019-03-13T13:13:05.787Z,7.90